Terminal Aerodrome Forecast
Issued by NWS Kansas City/Pleasant Hill, MO

Home | Current Version | Previous Version | Text Only | Print | Product List | Glossary On
Versions: 1 2 3 4 5 6 7 8 9 10 11 12 13 14 15 16 17 18 19 20 21 22 23 24 25 26 27 28 29
000
FTUS43 KEAX 270531
TAFMCI
TAF
KMCI 270531Z 2706/2806 17008KT P6SM SCT005 BKN050
      TEMPO 2706/2708 5SM BR BKN005
     FM270800 16005KT 3SM BR BKN005
     FM271300 18006KT P6SM FEW003 SCT030
     FM272000 21009KT P6SM VCTS SCT030CB=

USA.gov is the U.S. government's official web portal to all federal, state and local government web resources and services.